CheckWX is a tool to help pilots better visualize weather data.  It is not intended as a substitute for an official pre-flight weather briefing.

03:59:54 UTC

KFYV METAR
Drake Field Airport
Fayetteville, Arkansas, USA
Current

1 hour ago

KFYV 020253Z AUTO 14008KT 10SM CLR 18/04 A2994 RMK AO2 SLPNO T01830039 53003
Observed
Apr-2 @ 02:53 UTC
Wind
  • 140° at 8 KTS
Visibility
10 SM
Flight Rules
VFR
Cloud Levels
  • Clear skies
Temperature
18°C / 64°F
Dewpoint
C / 39°F
Humidity
40%
Altimeter
29.94" Hg
Pressure
1013.92 hPa
Previous

2 hours ago

KFYV 020153Z AUTO 12004KT 10SM CLR 18/06 A2993 RMK AO2 SLP130 T01830056
Observed
Apr-2 @ 01:53 UTC
Wind
  • 120° at 4 KTS
Visibility
10 SM
Flight Rules
VFR
Cloud Levels
  • Clear skies
Temperature
18°C / 64°F
Dewpoint
C / 43°F
Humidity
46%
Altimeter
29.93" Hg
Pressure
1013.52 hPa
Previous

3 hours ago

KFYV 020053Z 12008KT 10SM CLR 19/04 A2992 RMK AO2 SLP128 T01890044
Observed
Apr-2 @ 00:53 UTC
Wind
  • 120° at 8 KTS
Visibility
10 SM
Flight Rules
VFR
Cloud Levels
  • Clear skies
Temperature
19°C / 66°F
Dewpoint
C / 39°F
Humidity
37%
Altimeter
29.92" Hg
Pressure
1013.22 hPa